Time;durP1;ratioP1;P1;durP2;ratioP2;P2;SDS_P1;SDS_P2;PMS_P1;PMS_P2;Temp;Humidity;BMP_temperature;BMP_pressure;BME280_temperature;BME280_humidity;BME280_pressure;Samples;Min_cycle;Max_cycle;Signal;HPM_P1;HPM_P2
2022/11/17 00:00:40;;;;;;;5.70;3.65;;;;;;;4.24;72.14;99570.06;1778947;79;21552;-72
2022/11/17 00:03:31;;;;;;;;;;;;;;;;;;;;;
2022/11/17 00:05:53;;;;;;;6.42;4.42;;;;;;;4.15;72.42;99566.23;1739665;81;21160;-72
2022/11/17 00:08:38;;;;;;;8.05;5.03;;;;;;;4.09;72.45;99569.83;1738026;80;21257;-72
2022/11/17 00:11:30;;;;;;;6.78;4.78;;;;;;;4.05;72.52;99572.14;1748055;80;21045;-73
2022/11/17 00:17:14;;;;;;;;;;;;;;;;;;;;;
2022/11/17 00:22:28;;;;;;;;;;;;;;;;;;;;;
2022/11/17 00:24:55;;;;;;;7.00;4.87;;;;;;;4.02;72.62;99565.22;1681180;83;21065;-73
2022/11/17 00:27:33;;;;;;;6.42;4.62;;;;;;;4.02;72.66;99562.58;1730500;81;20992;-73
2022/11/17 00:30:07;;;;;;;7.37;5.37;;;;;;;4.00;72.59;99564.12;1733298;81;20994;-72
2022/11/17 00:35:32;;;;;;;8.43;5.62;;;;;;;3.97;72.56;99557.98;1737288;81;21018;-71
2022/11/17 00:38:16;;;;;;;8.58;5.30;;;;;;;3.90;72.50;99556.81;1740059;81;21038;-70
2022/11/17 00:40:57;;;;;;;6.67;4.87;;;;;;;3.88;72.61;99554.95;1715400;81;21563;-71
2022/11/17 00:43:27;;;;;;;7.28;5.42;;;;;;;3.86;72.66;99562.82;1729605;81;21077;-72
2022/11/17 00:46:03;;;;;;;7.10;5.35;;;;;;;3.82;72.67;99565.14;1737345;80;21120;-73
2022/11/17 00:48:42;;;;;;;;;;;;;;;;;;;;;
2022/11/17 00:51:19;;;;;;;8.03;5.90;;;;;;;3.76;72.76;99562.12;1778056;80;21572;-71
2022/11/17 00:53:54;;;;;;;7.28;5.25;;;;;;;3.77;72.81;99557.11;1777740;79;21053;-71
2022/11/17 00:56:31;;;;;;;;;;;;;;;;;;;;;
2022/11/17 00:59:10;;;;;;;7.65;6.17;;;;;;;3.82;72.80;99556.39;1771166;80;20924;-73
2022/11/17 01:01:45;;;;;;;7.90;5.70;;;;;;;3.81;72.77;99556.91;1749493;80;21231;-73
2022/11/17 01:04:16;;;;;;;7.83;5.72;;;;;;;3.79;72.73;99562.97;1779393;80;21078;-74
2022/11/17 01:06:51;;;;;;;7.95;5.95;;;;;;;3.78;72.77;99553.94;1786793;79;21004;-72
2022/11/17 01:09:30;;;;;;;7.87;5.92;;;;;;;3.76;72.77;99554.19;1733980;81;20951;-72
2022/11/17 01:12:06;;;;;;;8.18;5.97;;;;;;;3.76;72.74;99552.88;1767750;80;21019;-73
2022/11/17 01:14:41;;;;;;;7.20;5.40;;;;;;;3.75;72.88;99553.89;1772538;79;20920;-73
2022/11/17 01:17:19;;;;;;;7.03;5.80;;;;;;;3.73;72.84;99555.46;1763385;80;21407;-74
2022/11/17 01:19:53;;;;;;;8.38;6.03;;;;;;;3.71;72.87;99549.60;1773113;80;21031;-75
2022/11/17 01:22:28;;;;;;;7.85;6.17;;;;;;;3.71;72.95;99553.56;1791868;79;21055;-74
2022/11/17 01:25:03;;;;;;;8.10;6.15;;;;;;;3.73;72.95;99558.63;1766629;80;21049;-74
2022/11/17 01:27:48;;;;;;;8.20;6.08;;;;;;;3.74;72.91;99555.73;1750759;80;20976;-71
2022/11/17 01:30:17;;;;;;;9.13;6.70;;;;;;;3.72;72.86;99549.91;1745566;80;21616;-74
2022/11/17 01:32:57;;;;;;;11.85;7.80;;;;;;;3.69;72.90;99556.98;1777229;80;21024;-73
2022/11/17 01:35:38;;;;;;;8.98;6.85;;;;;;;3.64;72.86;99556.07;1736545;80;21525;-73
2022/11/17 01:38:06;;;;;;;8.83;6.75;;;;;;;3.62;72.90;99552.86;1768064;80;21390;-73
2022/11/17 01:40:42;;;;;;;8.88;6.70;;;;;;;3.62;72.94;99550.22;1767166;80;21052;-71
2022/11/17 01:43:17;;;;;;;9.83;7.47;;;;;;;3.65;72.90;99557.66;1770741;79;20991;-73
2022/11/17 01:45:57;;;;;;;11.45;8.60;;;;;;;3.62;72.92;99556.32;1752301;80;21540;-72
2022/11/17 01:48:19;;;;;;;9.50;7.72;;;;;;;3.60;72.63;99558.91;1769084;80;20947;-73
2022/11/17 01:51:00;;;;;;;10.72;8.33;;;;;;;3.55;72.72;99563.55;1768333;80;20967;-74
2022/11/17 01:53:39;;;;;;;;;;;;;;;;;;;;;
2022/11/17 01:56:09;;;;;;;10.08;7.60;;;;;;;3.62;72.97;99556.81;1771417;80;21424;-74
2022/11/17 01:58:52;;;;;;;10.53;8.48;;;;;;;3.63;72.96;99559.77;1776288;79;21596;-74
2022/11/17 02:01:20;;;;;;;10.90;8.38;;;;;;;3.62;72.92;99555.00;1775147;80;21087;-72
2022/11/17 02:03:54;;;;;;;;;;;;;;;3.62;72.80;99555.00;1767877;79;21002;-73
2022/11/17 02:06:34;;;;;;;9.98;7.87;;;;;;;3.61;72.82;99559.18;1735213;80;20137;-73
2022/11/17 02:09:17;;;;;;;12.45;8.58;;;;;;;3.57;72.66;99564.13;1777414;79;21506;-72
2022/11/17 02:11:42;;;;;;;10.68;8.60;;;;;;;3.53;72.65;99566.45;1775876;79;20988;-72
2022/11/17 02:14:15;;;;;;;9.68;8.08;;;;;;;3.56;72.73;99562.54;1765401;80;21575;-72
2022/11/17 02:16:51;;;;;;;10.80;8.38;;;;;;;3.53;72.62;99558.52;1738497;80;22099;-72
2022/11/17 02:19:30;;;;;;;10.60;8.33;;;;;;;3.49;72.51;99560.56;1767757;80;21014;-72
2022/11/17 02:22:40;;;;;;;11.57;9.35;;;;;;;3.42;72.47;99563.33;1750580;79;20947;-71
2022/11/17 02:25:42;;;;;;;11.60;8.80;;;;;;;3.42;72.59;99569.94;1725793;82;21466;-71
2022/11/17 02:28:29;;;;;;;11.15;8.48;;;;;;;3.44;72.58;99571.80;1732543;80;21086;-72
2022/11/17 02:31:35;;;;;;;11.08;8.88;;;;;;;3.42;72.61;99567.30;1749341;80;21038;-71
2022/11/17 02:34:36;;;;;;;11.48;9.05;;;;;;;3.36;72.49;99570.86;1760800;79;20942;-71
2022/11/17 02:37:21;;;;;;;11.00;8.90;;;;;;;3.34;72.59;99580.84;1788911;79;21058;-71
2022/11/17 02:40:12;;;;;;;11.48;9.10;;;;;;;3.36;72.69;99574.83;1770842;79;20986;-71
2022/11/17 02:45:48;;;;;;;11.08;8.60;;;;;;;3.39;72.66;99573.04;1770645;79;20991;-71
2022/11/17 02:48:31;;;;;;;12.47;9.60;;;;;;;3.36;72.53;99566.91;1749472;80;21031;-71
2022/11/17 02:51:04;;;;;;;11.80;9.43;;;;;;;3.27;73.03;99561.70;1751100;80;21029;-72
2022/11/17 02:53:36;;;;;;;13.10;9.35;;;;;;;3.20;73.15;99561.83;1776459;79;21027;-71
2022/11/17 02:56:13;;;;;;;13.62;10.03;;;;;;;3.11;73.22;99558.46;1777143;79;21094;-71
2022/11/17 02:58:52;;;;;;;13.22;9.73;;;;;;;3.05;73.21;99565.45;1778937;80;21023;-72
2022/11/17 03:01:49;;;;;;;12.35;9.18;;;;;;;3.04;72.93;99560.70;1773477;80;22178;-70
2022/11/17 03:04:40;;;;;;;12.45;9.28;;;;;;;3.02;72.78;99556.16;1776492;79;21109;-72
2022/11/17 03:07:36;;;;;;;12.43;9.63;;;;;;;2.99;72.67;99561.91;1746299;80;21058;-71
2022/11/17 03:10:30;;;;;;;11.88;9.10;;;;;;;3.00;72.78;99571.44;1746792;80;21490;-71
2022/11/17 03:13:20;;;;;;;12.07;9.30;;;;;;;3.03;72.84;99566.23;1766339;79;21010;-71
2022/11/17 03:16:35;;;;;;;13.13;9.18;;;;;;;3.03;72.75;99570.98;1750914;80;21583;-72
2022/11/17 03:19:41;;;;;;;13.00;9.90;;;;;;;3.00;72.50;99568.00;1736238;81;21125;-70
2022/11/17 03:22:21;;;;;;;12.90;9.90;;;;;;;2.95;72.39;99560.77;1714904;80;21068;-72
2022/11/17 03:25:05;;;;;;;11.55;9.30;;;;;;;2.97;72.50;99565.30;1744980;81;20994;-70
2022/11/17 03:27:47;;;;;;;12.43;9.83;;;;;;;3.02;72.49;99567.23;1724498;81;21004;-72
2022/11/17 03:30:18;;;;;;;11.45;9.20;;;;;;;3.00;72.30;99566.69;1761097;80;21250;-72
2022/11/17 03:33:05;;;;;;;;;;;;;;;;;;;;;
2022/11/17 03:35:31;;;;;;;12.60;9.30;;;;;;;3.04;72.08;99571.25;1727427;81;21058;-71
2022/11/17 03:38:16;;;;;;;12.65;9.75;;;;;;;2.99;71.87;99565.06;1706994;83;21049;-72
2022/11/17 03:40:54;;;;;;;12.35;8.88;;;;;;;2.96;71.86;99571.63;1757789;80;21039;-70
2022/11/17 03:43:26;;;;;;;12.05;9.20;;;;;;;2.97;71.81;99565.30;1748574;82;21647;-71
2022/11/17 03:46:00;;;;;;;13.48;9.53;;;;;;;2.99;71.79;99562.42;1785100;80;21633;-71
2022/11/17 03:48:39;;;;;;;12.40;8.58;;;;;;;2.96;71.70;99559.75;1752380;80;21049;-71
2022/11/17 03:51:17;;;;;;;12.07;8.68;;;;;;;2.94;71.51;99557.86;1780665;80;21012;-70
2022/11/17 03:53:50;;;;;;;16.00;9.73;;;;;;;2.90;71.44;99555.40;1782487;79;21442;-71
2022/11/17 03:57:17;;;;;;;;;;;;;;;;;;;;;
2022/11/17 03:59:52;;;;;;;13.68;9.70;;;;;;;2.82;71.62;99563.12;1745896;79;20134;-72
2022/11/17 04:02:24;;;;;;;13.95;9.30;;;;;;;2.84;71.73;99560.27;1759956;79;21018;-72
2022/11/17 04:05:05;;;;;;;11.25;8.48;;;;;;;2.90;71.77;99559.36;1736213;81;21057;-72
2022/11/17 04:07:35;;;;;;;12.15;9.50;;;;;;;2.92;71.72;99556.47;1732107;80;21081;-72
2022/11/17 04:10:18;;;;;;;14.30;9.75;;;;;;;2.92;71.59;99554.63;1722238;82;21006;-72
2022/11/17 04:16:00;;;;;;;14.18;9.35;;;;;;;2.91;71.40;99554.36;1787814;79;20985;-70
2022/11/17 04:18:41;;;;;;;13.40;9.30;;;;;;;2.84;71.08;99548.92;1759114;79;21572;-72
2022/11/17 04:21:34;;;;;;;13.43;9.95;;;;;;;2.77;71.01;99539.81;1739544;82;21054;-73
2022/11/17 04:23:56;;;;;;;12.45;8.35;;;;;;;2.71;70.93;99544.69;1764666;80;22117;-72
2022/11/17 04:29:19;;;;;;;13.00;9.30;;;;;;;2.62;70.99;99541.58;1774450;80;20978;-72
2022/11/17 04:31:59;;;;;;;13.72;9.78;;;;;;;2.64;71.17;99542.69;1724560;82;20971;-73
2022/11/17 04:34:40;;;;;;;12.45;9.20;;;;;;;2.65;71.23;99545.60;1729697;80;21081;-72
2022/11/17 04:37:16;;;;;;;13.53;9.40;;;;;;;2.67;71.28;99545.67;1700070;84;21015;-72
2022/11/17 04:39:48;;;;;;;12.45;8.70;;;;;;;2.67;71.23;99549.63;1700453;84;21011;-72
2022/11/17 04:42:26;;;;;;;;;;;;;;;;;;;;;
2022/11/17 04:44:58;;;;;;;12.45;8.98;;;;;;;2.65;71.04;99553.52;1762783;80;20992;-72
2022/11/17 04:47:33;;;;;;;17.92;10.10;;;;;;;2.64;71.00;99550.08;1769633;80;20951;-73
2022/11/17 04:50:22;;;;;;;12.82;9.58;;;;;;;2.68;70.93;99555.17;1729276;80;20977;-73
2022/11/17 04:52:47;;;;;;;12.80;9.40;;;;;;;2.68;70.88;99551.22;1744861;80;21228;-73
2022/11/17 04:55:23;;;;;;;13.28;10.38;;;;;;;2.72;70.85;99543.65;1679090;83;21146;-71
2022/11/17 04:58:11;;;;;;;;;;;;;;;;;;;;;
2022/11/17 05:00:39;;;;;;;13.18;9.28;;;;;;;2.68;70.76;99551.22;1732318;80;20954;-72
2022/11/17 05:03:16;;;;;;;12.70;9.13;;;;;;;2.64;71.01;99547.96;1690739;82;21073;-73
2022/11/17 05:05:50;;;;;;;12.58;8.85;;;;;;;2.64;71.32;99550.59;1717100;82;21010;-73
2022/11/17 05:08:37;;;;;;;12.73;8.63;;;;;;;2.62;71.37;99553.97;1725685;81;21111;-72
2022/11/17 05:14:03;;;;;;;14.07;9.58;;;;;;;2.62;71.33;99559.24;1709836;82;21037;-73
2022/11/17 05:19:31;;;;;;;13.55;9.63;;;;;;;2.61;70.68;99576.09;1736156;81;21057;-71
2022/11/17 05:23:52;;;;;;;13.35;9.75;;;;;;;2.61;70.55;99574.26;1736811;82;20962;-72
2022/11/17 05:24:47;;;;;;;14.75;10.60;;;;;;;2.61;70.47;99581.37;1714184;81;21042;-71
2022/11/17 05:27:27;;;;;;;13.53;9.40;;;;;;;2.58;70.38;99588.69;1744573;81;21061;-72
2022/11/17 05:29:57;;;;;;;12.43;8.68;;;;;;;2.60;70.46;99583.20;1725909;82;21496;-73
2022/11/17 05:32:46;;;;;;;;;;;;;;;;;;;;;
2022/11/17 05:35:07;;;;;;;14.20;9.90;;;;;;;2.49;70.22;99596.64;1745799;82;21030;-72
2022/11/17 05:37:58;;;;;;;;;;;;;;;;;;;;;
2022/11/17 05:40:33;;;;;;;;;;;;;;;;;;;;;
2022/11/17 05:43:03;;;;;;;15.48;10.93;;;;;;;2.58;70.22;99597.13;1740383;80;21167;-71
2022/11/17 05:45:56;;;;;;;;;;;;;;;;;;;;;
2022/11/17 05:48:34;;;;;;;;;;;;;;;;;;;;;
2022/11/17 05:51:08;;;;;;;14.65;10.40;;;;;;;2.66;69.93;99602.56;1747888;80;21006;-72
2022/11/17 05:53:44;;;;;;;16.15;11.22;;;;;;;2.65;69.82;99615.47;1749965;80;21043;-71
2022/11/17 05:56:48;;;;;;;16.25;12.05;;;;;;;2.65;69.79;99626.02;1746548;82;21544;-72
2022/11/17 05:59:49;;;;;;;16.93;11.63;;;;;;;2.67;69.82;99631.88;1750243;82;21000;-72
2022/11/17 06:02:25;;;;;;;16.85;11.78;;;;;;;2.68;69.82;99624.24;1743065;82;21023;-72
2022/11/17 06:04:56;;;;;;;17.82;11.78;;;;;;;2.67;69.78;99615.53;1750038;82;21042;-71
2022/11/17 06:07:32;;;;;;;18.03;12.17;;;;;;;2.73;69.84;99601.44;1747169;82;20963;-73
2022/11/17 06:10:17;;;;;;;;;;;;;;;;;;;;;
2022/11/17 06:12:41;;;;;;;15.80;10.98;;;;;;;2.68;69.63;99576.27;1742832;82;21094;-72
2022/11/17 06:15:17;;;;;;;17.82;12.07;;;;;;;2.72;69.66;99573.97;1737257;82;20998;-72
2022/11/17 12:57:36;;;;;;;23.80;15.50;;;;;;;2.44;74.91;99451.58;1799395;79;21989;-71
2022/11/17 13:00:19;;;;;;;24.05;16.77;;;;;;;2.47;73.95;99442.39;1748967;81;21081;-72
2022/11/17 13:03:03;;;;;;;22.62;15.90;;;;;;;2.52;73.36;99441.20;1765539;81;21163;-71
2022/11/17 13:05:29;;;;;;;25.02;16.70;;;;;;;2.56;72.70;99432.58;1759897;81;21537;-72
2022/11/17 13:08:19;;;;;;;28.30;18.50;;;;;;;2.53;71.61;99436.20;1766454;81;21486;-72
2022/11/17 13:10:46;;;;;;;28.07;19.20;;;;;;;2.51;71.19;99429.86;1766315;81;21039;-71
2022/11/17 13:13:22;;;;;;;28.92;19.23;;;;;;;2.48;70.72;99434.27;1766508;81;21042;-72
2022/11/17 13:15:57;;;;;;;27.82;18.60;;;;;;;2.47;70.35;99430.04;1765996;81;21912;-72
2022/11/17 13:18:42;;;;;;;27.48;19.05;;;;;;;2.46;70.08;99434.20;1766612;81;20932;-72
2022/11/17 13:21:29;;;;;;;21.60;15.10;;;;;;;2.44;69.78;99430.50;1765161;80;20990;-72
2022/11/17 13:23:57;;;;;;;20.50;13.60;;;;;;;2.43;69.57;99434.14;1766620;80;21019;-72
2022/11/17 13:26:37;;;;;;;21.97;15.90;;;;;;;2.44;69.21;99426.55;1765998;81;21584;-72
2022/11/17 13:29:14;;;;;;;24.15;16.75;;;;;;;2.41;69.08;99424.38;1766611;81;21113;-71
2022/11/17 13:31:40;;;;;;;20.05;14.63;;;;;;;2.41;69.15;99423.58;1761858;80;20932;-72
2022/11/17 13:34:17;;;;;;;21.65;15.32;;;;;;;2.39;68.93;99421.67;1766423;81;20996;-72
2022/11/17 13:36:55;;;;;;;23.25;16.45;;;;;;;2.39;68.95;99411.13;1764943;80;20975;-73
2022/11/17 13:39:22;;;;;;;32.28;19.10;;;;;;;2.40;69.06;99408.25;1766578;81;21130;-72
2022/11/17 13:41:49;;;;;;;24.82;16.20;;;;;;;2.43;69.12;99406.47;1766072;81;21143;-72
2022/11/17 13:44:23;;;;;;;23.22;15.85;;;;;;;2.47;69.09;99405.00;1766340;81;20970;-72
2022/11/17 13:46:49;;;;;;;20.85;14.93;;;;;;;2.47;68.84;99401.05;1765700;80;20964;-72
2022/11/17 13:49:36;;;;;;;20.92;14.58;;;;;;;2.45;68.64;99407.06;1766739;81;21533;-72
2022/11/17 13:52:07;;;;;;;20.23;14.03;;;;;;;2.43;68.30;99404.36;1766128;81;21004;-72
2022/11/17 13:54:34;;;;;;;18.75;13.55;;;;;;;2.38;68.09;99401.11;1764791;80;21112;-72
2022/11/17 13:57:05;;;;;;;18.80;13.10;;;;;;;2.31;67.97;99397.28;1765888;80;20948;-73
2022/11/17 13:59:35;;;;;;;18.23;12.80;;;;;;;2.29;68.06;99394.06;1766118;81;20988;-73
2022/11/17 14:02:22;;;;;;;18.57;12.07;;;;;;;2.28;68.19;99391.67;1765989;81;21046;-73
2022/11/17 14:05:17;;;;;;;19.70;13.00;;;;;;;2.25;68.16;99393.45;1766236;81;20940;-72
2022/11/17 14:07:44;;;;;;;21.90;15.03;;;;;;;2.21;68.29;99396.27;1765982;81;21236;-72
2022/11/17 14:10:22;;;;;;;19.15;13.78;;;;;;;2.18;68.34;99396.73;1761052;81;21039;-72
2022/11/17 14:13:03;;;;;;;20.48;13.10;;;;;;;2.18;68.38;99402.00;1733165;82;21505;-72
2022/11/17 14:15:41;;;;;;;22.65;13.45;;;;;;;2.18;68.53;99402.80;1710349;82;21104;-72
2022/11/17 14:18:27;;;;;;;24.23;15.35;;;;;;;2.16;68.53;99405.37;1735714;82;21030;-74
2022/11/17 14:21:12;;;;;;;24.25;16.17;;;;;;;2.19;68.68;99403.59;1735150;82;21229;-73
2022/11/17 14:23:39;;;;;;;21.90;14.60;;;;;;;2.26;68.81;99415.61;1735460;82;20999;-72
2022/11/17 14:26:21;;;;;;;24.47;15.05;;;;;;;2.28;68.72;99407.48;1735096;82;21094;-73
2022/11/17 14:28:48;;;;;;;19.80;14.58;;;;;;;2.26;68.61;99416.13;1735203;81;21514;-71
2022/11/17 18:19:13;;;;;;;15.27;10.87;;;;;;;1.54;77.43;99393.41;1833722;77;23408;-72
2022/11/17 18:21:39;;;;;;;16.02;9.83;;;;;;;1.57;76.30;99394.27;1795040;80;20868;-74
2022/11/17 18:24:06;;;;;;;16.27;10.15;;;;;;;1.62;75.28;99398.87;1795804;78;21117;-72
2022/11/17 18:26:34;;;;;;;14.05;9.45;;;;;;;1.62;74.37;99381.77;1771941;80;20982;-73
2022/11/17 18:29:07;;;;;;;13.35;9.00;;;;;;;1.64;73.65;99388.38;1771548;81;21044;-72
2022/11/17 18:31:35;;;;;;;16.82;10.05;;;;;;;1.66;73.05;99387.38;1757012;81;21461;-74
2022/11/17 18:34:21;;;;;;;15.40;9.88;;;;;;;1.67;72.33;99388.45;1771156;81;21079;-74
2022/11/17 18:36:49;;;;;;;13.93;8.83;;;;;;;1.63;71.74;99386.79;1757375;81;21782;-74
2022/11/17 18:39:16;;;;;;;14.85;8.93;;;;;;;1.63;71.31;99388.11;1757147;81;20922;-73
2022/11/17 18:41:43;;;;;;;15.43;9.45;;;;;;;1.62;70.74;99382.56;1754656;81;21022;-74
2022/11/17 18:44:21;;;;;;;16.60;10.55;;;;;;;1.58;70.39;99384.54;1779724;80;20972;-73
2022/11/17 18:46:48;;;;;;;15.45;8.98;;;;;;;1.56;70.21;99384.78;1779664;80;21122;-75
2022/11/17 18:49:14;;;;;;;12.07;8.55;;;;;;;1.57;70.16;99394.27;1757266;81;21793;-73
2022/11/17 18:51:41;;;;;;;11.48;8.18;;;;;;;1.57;69.89;99394.27;1757172;81;21037;-73
2022/11/17 18:54:10;;;;;;;11.78;8.20;;;;;;;1.52;69.63;99384.95;1757247;81;20987;-74
2022/11/17 18:56:37;;;;;;;14.03;9.30;;;;;;;1.49;69.54;99388.55;1757196;81;20966;-73
2022/11/17 18:59:10;;;;;;;15.50;9.13;;;;;;;1.47;69.53;99383.50;1757103;81;20983;-74
2022/11/17 19:01:35;;;;;;;14.33;9.40;;;;;;;1.45;69.47;99380.31;1756749;81;21239;-73
2022/11/17 19:04:02;;;;;;;15.65;9.88;;;;;;;1.43;69.41;99382.88;1740681;82;21040;-75
2022/11/17 19:06:29;;;;;;;14.03;9.83;;;;;;;1.42;69.45;99382.08;1740989;82;20972;-73
2022/11/17 19:09:00;;;;;;;14.78;10.13;;;;;;;1.42;69.50;99383.39;1743156;82;21004;-73
2022/11/17 19:11:28;;;;;;;15.20;10.28;;;;;;;1.43;69.54;99366.56;1750203;82;20949;-73
2022/11/17 19:13:57;;;;;;;15.43;10.00;;;;;;;1.42;69.62;99369.44;1765850;81;21549;-74
2022/11/17 19:16:25;;;;;;;15.05;9.75;;;;;;;1.40;69.62;99373.59;1739965;81;21000;-74
2022/11/17 19:18:53;;;;;;;13.43;9.05;;;;;;;1.37;69.63;99379.31;1732218;82;21016;-73
2022/11/17 19:21:28;;;;;;;13.78;9.68;;;;;;;1.35;69.64;99386.13;1732889;81;21043;-74
2022/11/17 19:23:58;;;;;;;13.80;9.18;;;;;;;1.36;69.75;99379.03;1731835;82;21019;-73
2022/11/17 19:26:27;;;;;;;16.30;10.40;;;;;;;1.34;69.75;99372.66;1732656;81;21031;-75
2022/11/17 19:28:57;;;;;;;14.85;10.05;;;;;;;1.34;69.75;99367.91;1732017;82;21040;-74
2022/11/17 19:31:24;;;;;;;16.70;10.18;;;;;;;1.36;69.78;99370.62;1732182;81;21565;-74
2022/11/17 19:33:52;;;;;;;16.73;10.43;;;;;;;1.37;69.75;99366.16;1732783;81;20988;-74
2022/11/17 19:36:21;;;;;;;13.85;9.53;;;;;;;1.37;69.66;99366.95;1732386;82;21031;-75
2022/11/17 19:38:51;;;;;;;15.00;10.13;;;;;;;1.35;69.61;99366.88;1731922;82;21207;-74
2022/11/17 19:41:32;;;;;;;16.52;10.75;;;;;;;1.35;69.54;99365.56;1739630;81;20967;-73
2022/11/17 19:44:01;;;;;;;13.25;9.08;;;;;;;1.35;69.52;99365.56;1743196;81;21009;-73
2022/11/17 19:46:31;;;;;;;14.25;9.55;;;;;;;1.34;69.43;99369.23;1755538;81;21055;-73
2022/11/17 19:48:58;;;;;;;15.28;10.03;;;;;;;1.34;69.38;99363.97;1737087;81;21546;-74
2022/11/17 19:51:31;;;;;;;12.68;8.78;;;;;;;1.35;69.31;99370.34;1762642;80;21763;-74
2022/11/17 19:54:01;;;;;;;12.75;9.35;;;;;;;1.34;69.19;99361.34;1751671;80;21012;-73
2022/11/17 19:56:27;;;;;;;13.28;9.20;;;;;;;1.34;69.02;99360.02;1739802;81;21004;-73
2022/11/17 19:58:59;;;;;;;13.28;9.40;;;;;;;1.36;69.04;99375.08;1750288;81;21016;-74
2022/11/17 20:01:27;;;;;;;;;;;;;;;1.38;68.90;99369.06;1760440;81;20964;-74
2022/11/17 20:03:54;;;;;;;14.28;9.55;;;;;;;1.39;68.83;99359.64;1748279;81;21813;-73
2022/11/17 20:06:25;;;;;;;16.40;8.80;;;;;;;1.38;68.74;99359.86;1738812;81;21063;-73
2022/11/17 20:08:53;;;;;;;14.13;9.00;;;;;;;1.38;68.74;99359.86;1499101;81;10000314;-74
2022/11/17 20:11:23;;;;;;;13.80;9.28;;;;;;;1.42;68.71;99354.97;1744608;81;21118;-74
2022/11/17 20:13:49;;;;;;;12.90;8.83;;;;;;;1.45;68.65;99354.00;1743060;81;21498;-73
2022/11/17 20:16:25;;;;;;;14.00;9.40;;;;;;;1.50;68.67;99362.52;1758092;81;21015;-74
2022/11/17 20:18:54;;;;;;;14.20;9.45;;;;;;;1.53;68.56;99357.60;1735363;81;21105;-73
2022/11/17 20:21:23;;;;;;;13.70;9.05;;;;;;;1.54;68.47;99349.19;1754076;81;21131;-73
2022/11/17 20:23:50;;;;;;;14.85;9.50;;;;;;;1.57;68.39;99346.90;1744446;81;21090;-74
2022/11/17 20:26:19;;;;;;;14.23;9.98;;;;;;;1.60;68.25;99349.59;1745478;81;21107;-73
2022/11/17 20:28:47;;;;;;;14.43;9.73;;;;;;;1.55;68.02;99344.23;1761811;81;20949;-73
2022/11/17 20:31:23;;;;;;;18.65;10.25;;;;;;;1.50;67.98;99339.63;1762168;81;21038;-75
2022/11/17 20:33:50;;;;;;;17.70;11.35;;;;;;;1.47;67.94;99333.50;1756898;81;21857;-72
2022/11/17 20:36:19;;;;;;;16.20;10.40;;;;;;;1.50;67.96;99331.73;1628977;80;9999746;-73
2022/11/17 20:38:50;;;;;;;14.83;10.07;;;;;;;1.49;67.87;99328.83;1512558;81;10000336;-72
2022/11/17 20:41:19;;;;;;;14.25;9.55;;;;;;;1.47;67.76;99333.50;1750750;81;21568;-73
2022/11/17 20:43:50;;;;;;;14.55;10.03;;;;;;;1.47;67.82;99333.50;1740660;81;21043;-74
2022/11/17 20:46:17;;;;;;;15.80;10.30;;;;;;;1.50;67.74;99326.47;1732041;81;21066;-74
2022/11/17 20:48:44;;;;;;;18.48;11.00;;;;;;;1.50;67.56;99334.37;1743449;81;21128;-73
2022/11/17 20:51:13;;;;;;;14.63;9.58;;;;;;;1.52;67.55;99326.27;1737337;81;22318;-74
2022/11/17 20:53:39;;;;;;;14.65;8.98;;;;;;;1.50;67.32;99327.80;1743058;81;21553;-74
2022/11/17 20:56:08;;;;;;;17.17;10.28;;;;;;;1.52;67.31;99331.01;1754682;81;21028;-73
2022/11/17 20:58:36;;;;;;;16.32;9.85;;;;;;;1.53;67.32;99328.66;1752244;81;21071;-74
2022/11/17 21:01:13;;;;;;;16.20;10.40;;;;;;;1.54;67.13;99327.61;1738493;81;21320;-74
2022/11/17 21:03:40;;;;;;;15.00;10.18;;;;;;;1.52;67.07;99332.84;1742113;81;21062;-73
2022/11/17 21:06:07;;;;;;;13.93;9.75;;;;;;;1.54;67.10;99338.14;1740545;81;21015;-74
2022/11/17 21:08:36;;;;;;;15.05;10.15;;;;;;;1.55;66.96;99342.40;1736257;81;21086;-73
2022/11/17 21:11:08;;;;;;;15.18;9.58;;;;;;;1.55;66.93;99329.23;1754538;81;21074;-73
2022/11/17 21:13:36;;;;;;;15.28;9.35;;;;;;;1.54;66.82;99334.20;1742728;81;21284;-74
2022/11/17 21:16:10;;;;;;;16.10;10.18;;;;;;;1.51;66.65;99341.23;1738620;81;21074;-74
2022/11/17 21:18:41;;;;;;;13.55;9.03;;;;;;;1.47;66.57;99340.09;1745745;80;21023;-74
2022/11/17 21:21:07;;;;;;;12.98;8.88;;;;;;;1.44;66.51;99341.85;1736672;81;21082;-73
2022/11/17 21:23:36;;;;;;;14.50;9.18;;;;;;;1.44;66.49;99348.95;1746112;81;22198;-75
2022/11/17 21:26:07;;;;;;;12.47;9.10;;;;;;;1.40;66.41;99348.08;1742422;81;21975;-74
2022/11/17 21:28:35;;;;;;;11.80;8.88;;;;;;;1.36;66.40;99348.77;1752990;81;21063;-75
2022/11/17 21:31:10;;;;;;;13.55;8.83;;;;;;;1.34;66.37;99351.61;1740691;81;21035;-75
2022/11/17 21:33:39;;;;;;;12.98;8.55;;;;;;;1.33;66.42;99347.39;1751885;81;21535;-75
2022/11/17 21:36:08;;;;;;;12.88;8.23;;;;;;;1.31;66.29;99348.12;1738678;81;21687;-75
2022/11/17 21:38:34;;;;;;;12.90;8.45;;;;;;;1.30;66.20;99345.20;1750950;81;21138;-75
2022/11/17 21:41:16;;;;;;;13.80;8.75;;;;;;;1.30;66.28;99350.47;1737860;81;21094;-74
2022/11/17 21:43:45;;;;;;;12.88;8.43;;;;;;;1.33;66.37;99355.28;1731385;81;21078;-74
2022/11/17 21:46:15;;;;;;;13.10;9.08;;;;;;;1.37;66.40;99356.95;1715467;81;21589;-74
2022/11/17 21:48:42;;;;;;;12.82;8.35;;;;;;;1.39;66.28;99364.11;1756748;81;21063;-74
2022/11/17 21:51:18;;;;;;;11.57;8.70;;;;;;;1.38;66.22;99367.75;1740613;81;21074;-74
2022/11/17 21:53:45;;;;;;;11.83;7.87;;;;;;;1.38;66.21;99361.17;1742385;81;21082;-73
2022/11/17 21:56:12;;;;;;;11.73;8.18;;;;;;;1.40;66.09;99363.08;1742553;80;21078;-74
2022/11/17 21:58:40;;;;;;;12.23;8.33;;;;;;;1.42;66.01;99364.98;1742866;81;21050;-76
2022/11/17 22:01:13;;;;;;;9.60;7.55;;;;;;;1.42;65.88;99367.61;1713681;81;21113;-75
2022/11/17 22:03:40;;;;;;;11.50;8.10;;;;;;;1.40;65.74;99371.77;1744075;81;21568;-75
2022/11/17 22:06:16;;;;;;;10.28;6.62;;;;;;;1.38;65.59;99375.64;1749196;81;21071;-74
2022/11/17 23:20:09;;;;;;;12.27;8.07;;;;;;;0.73;71.49;99386.06;1778172;79;22010;-73
2022/11/17 23:22:36;;;;;;;11.25;8.63;;;;;;;0.76;70.33;99387.73;1788392;80;21522;-73
2022/11/17 23:25:03;;;;;;;10.82;8.15;;;;;;;0.74;69.51;99391.60;1784381;80;21126;-72
2022/11/17 23:27:30;;;;;;;11.08;7.22;;;;;;;0.77;69.14;99400.36;1760718;79;20966;-73
2022/11/17 23:29:57;;;;;;;9.15;6.85;;;;;;;0.82;68.80;99393.91;1791329;78;21577;-73
2022/11/17 23:32:23;;;;;;;9.80;6.80;;;;;;;0.86;68.26;99401.16;1806062;79;20956;-72
2022/11/17 23:34:50;;;;;;;9.90;7.25;;;;;;;0.85;67.70;99401.36;1805743;79;21047;-73
2022/11/17 23:37:18;;;;;;;11.05;7.97;;;;;;;0.81;66.96;99400.20;1772315;79;21255;-73
2022/11/17 23:39:46;;;;;;;11.57;7.47;;;;;;;0.79;66.81;99403.55;1743012;81;20892;-73
2022/11/17 23:42:12;;;;;;;11.68;7.55;;;;;;;0.82;66.65;99404.42;1744541;81;21022;-73
2022/11/17 23:44:39;;;;;;;10.03;6.80;;;;;;;0.84;66.32;99405.02;1742944;82;21047;-73
2022/11/17 23:47:06;;;;;;;10.10;6.45;;;;;;;0.85;66.19;99415.30;1773301;81;20941;-73
2022/11/17 23:49:33;;;;;;;10.40;7.53;;;;;;;0.86;65.91;99415.61;1774576;81;21275;-73
2022/11/17 23:51:59;;;;;;;11.35;7.22;;;;;;;0.82;65.41;99411.00;1758440;81;21553;-73
2022/11/17 23:54:26;;;;;;;10.98;7.08;;;;;;;0.79;65.25;99416.69;1762870;81;21015;-73
2022/11/17 23:56:54;;;;;;;8.95;6.92;;;;;;;0.74;65.08;99416.05;1758812;80;21015;-73
2022/11/17 23:59:21;;;;;;;10.58;7.08;;;;;;;0.72;64.93;99423.86;1748219;81;21003;-72
